sensor_id;sensor_type;location;lat;lon;timestamp;temperature;humidity
58339;DHT22;48278;52.704;6.536;2023-03-05T00:00:43;3.70;99.90
58339;DHT22;48278;52.704;6.536;2023-03-05T00:03:11;3.60;99.90
58339;DHT22;48278;52.704;6.536;2023-03-05T00:05:37;3.60;99.90
58339;DHT22;48278;52.704;6.536;2023-03-05T00:08:03;3.60;99.90
58339;DHT22;48278;52.704;6.536;2023-03-05T00:10:29;3.50;99.90
58339;DHT22;48278;52.704;6.536;2023-03-05T00:12:55;3.50;99.90
58339;DHT22;48278;52.704;6.536;2023-03-05T00:15:20;3.50;99.90
58339;DHT22;48278;52.704;6.536;2023-03-05T00:17:46;3.50;99.90
58339;DHT22;48278;52.704;6.536;2023-03-05T00:20:12;3.50;99.90
58339;DHT22;48278;52.704;6.536;2023-03-05T00:22:38;3.50;99.90
58339;DHT22;48278;52.704;6.536;2023-03-05T00:25:07;3.50;99.90
58339;DHT22;48278;52.704;6.536;2023-03-05T00:27:33;3.50;99.90
58339;DHT22;48278;52.704;6.536;2023-03-05T00:29:59;3.50;99.90
58339;DHT22;48278;52.704;6.536;2023-03-05T00:32:25;3.50;99.90
58339;DHT22;48278;52.704;6.536;2023-03-05T00:34:51;3.50;99.90
58339;DHT22;48278;52.704;6.536;2023-03-05T00:37:16;3.50;99.90
58339;DHT22;48278;52.704;6.536;2023-03-05T00:39:42;3.50;99.90
58339;DHT22;48278;52.704;6.536;2023-03-05T00:42:08;3.50;99.90
58339;DHT22;48278;52.704;6.536;2023-03-05T00:44:34;3.40;99.90
58339;DHT22;48278;52.704;6.536;2023-03-05T00:47:00;3.40;99.90
58339;DHT22;48278;52.704;6.536;2023-03-05T00:49:26;3.50;99.90
58339;DHT22;48278;52.704;6.536;2023-03-05T00:51:52;3.50;99.90
58339;DHT22;48278;52.704;6.536;2023-03-05T00:54:18;3.40;99.90
58339;DHT22;48278;52.704;6.536;2023-03-05T00:56:43;3.40;99.90
58339;DHT22;48278;52.704;6.536;2023-03-05T00:59:09;3.50;99.90
58339;DHT22;48278;52.704;6.536;2023-03-05T01:01:35;3.40;99.90
58339;DHT22;48278;52.704;6.536;2023-03-05T01:04:01;3.40;99.90
58339;DHT22;48278;52.704;6.536;2023-03-05T01:06:27;3.40;99.90
58339;DHT22;48278;52.704;6.536;2023-03-05T01:08:54;3.40;99.90
58339;DHT22;48278;52.704;6.536;2023-03-05T01:11:21;3.40;99.90
58339;DHT22;48278;52.704;6.536;2023-03-05T01:13:46;3.40;99.90
58339;DHT22;48278;52.704;6.536;2023-03-05T01:16:12;3.40;99.90
58339;DHT22;48278;52.704;6.536;2023-03-05T01:18:39;3.40;99.90
58339;DHT22;48278;52.704;6.536;2023-03-05T01:21:07;3.40;99.90
58339;DHT22;48278;52.704;6.536;2023-03-05T01:23:36;3.40;99.90
58339;DHT22;48278;52.704;6.536;2023-03-05T01:26:03;3.50;99.90
58339;DHT22;48278;52.704;6.536;2023-03-05T01:28:29;3.40;99.90
58339;DHT22;48278;52.704;6.536;2023-03-05T01:30:55;3.40;99.90
58339;DHT22;48278;52.704;6.536;2023-03-05T01:33:21;3.50;99.90
58339;DHT22;48278;52.704;6.536;2023-03-05T01:35:47;3.40;99.90
58339;DHT22;48278;52.704;6.536;2023-03-05T01:38:14;3.30;99.90
58339;DHT22;48278;52.704;6.536;2023-03-05T01:40:40;3.30;99.90
58339;DHT22;48278;52.704;6.536;2023-03-05T01:43:18;3.30;99.90
58339;DHT22;48278;52.704;6.536;2023-03-05T01:49:12;3.20;99.90
58339;DHT22;48278;52.704;6.536;2023-03-05T01:54:14;3.20;99.90
58339;DHT22;48278;52.704;6.536;2023-03-05T01:56:43;3.10;99.90
58339;DHT22;48278;52.704;6.536;2023-03-05T01:59:11;3.10;99.90
58339;DHT22;48278;52.704;6.536;2023-03-05T02:01:43;3.10;99.90
58339;DHT22;48278;52.704;6.536;2023-03-05T02:04:14;3.10;99.90
58339;DHT22;48278;52.704;6.536;2023-03-05T02:06:42;3.20;99.90
58339;DHT22;48278;52.704;6.536;2023-03-05T02:09:09;3.20;99.90
58339;DHT22;48278;52.704;6.536;2023-03-05T02:11:35;3.10;99.90
58339;DHT22;48278;52.704;6.536;2023-03-05T02:14:02;3.10;99.90
58339;DHT22;48278;52.704;6.536;2023-03-05T02:16:28;3.20;99.90
58339;DHT22;48278;52.704;6.536;2023-03-05T02:19:08;3.10;99.90
58339;DHT22;48278;52.704;6.536;2023-03-05T02:21:39;3.10;99.90
58339;DHT22;48278;52.704;6.536;2023-03-05T02:24:05;3.10;99.90
58339;DHT22;48278;52.704;6.536;2023-03-05T02:26:31;3.20;99.90
58339;DHT22;48278;52.704;6.536;2023-03-05T02:29:00;3.20;99.90
58339;DHT22;48278;52.704;6.536;2023-03-05T02:31:26;3.20;99.90
58339;DHT22;48278;52.704;6.536;2023-03-05T02:33:53;3.20;99.90
58339;DHT22;48278;52.704;6.536;2023-03-05T02:36:21;3.20;99.90
58339;DHT22;48278;52.704;6.536;2023-03-05T02:38:47;3.20;99.90
58339;DHT22;48278;52.704;6.536;2023-03-05T02:41:13;3.10;99.90
58339;DHT22;48278;52.704;6.536;2023-03-05T02:43:39;3.20;99.90
58339;DHT22;48278;52.704;6.536;2023-03-05T02:46:06;3.20;99.90
58339;DHT22;48278;52.704;6.536;2023-03-05T02:48:34;3.30;99.90
58339;DHT22;48278;52.704;6.536;2023-03-05T02:51:01;3.20;99.90
58339;DHT22;48278;52.704;6.536;2023-03-05T02:53:27;3.20;99.90
58339;DHT22;48278;52.704;6.536;2023-03-05T02:55:53;3.30;99.90
58339;DHT22;48278;52.704;6.536;2023-03-05T02:58:18;3.30;99.90
58339;DHT22;48278;52.704;6.536;2023-03-05T03:00:44;3.30;99.90
58339;DHT22;48278;52.704;6.536;2023-03-05T03:03:12;3.40;99.90
58339;DHT22;48278;52.704;6.536;2023-03-05T03:05:38;3.30;99.90
58339;DHT22;48278;52.704;6.536;2023-03-05T03:08:03;3.40;99.90
58339;DHT22;48278;52.704;6.536;2023-03-05T03:10:29;3.40;99.90
58339;DHT22;48278;52.704;6.536;2023-03-05T03:12:55;3.30;99.90
58339;DHT22;48278;52.704;6.536;2023-03-05T03:15:21;3.40;99.90
58339;DHT22;48278;52.704;6.536;2023-03-05T03:17:47;3.40;99.90
58339;DHT22;48278;52.704;6.536;2023-03-05T03:20:15;3.40;99.90
58339;DHT22;48278;52.704;6.536;2023-03-05T03:22:44;3.40;99.90
58339;DHT22;48278;52.704;6.536;2023-03-05T03:25:13;3.40;99.90
58339;DHT22;48278;52.704;6.536;2023-03-05T03:27:39;3.30;99.90
58339;DHT22;48278;52.704;6.536;2023-03-05T03:30:05;3.20;99.90
58339;DHT22;48278;52.704;6.536;2023-03-05T03:32:32;3.10;99.90
58339;DHT22;48278;52.704;6.536;2023-03-05T03:34:58;3.00;99.90
58339;DHT22;48278;52.704;6.536;2023-03-05T03:37:24;2.90;99.90
58339;DHT22;48278;52.704;6.536;2023-03-05T03:39:50;2.90;99.90
58339;DHT22;48278;52.704;6.536;2023-03-05T03:42:17;2.90;99.90
58339;DHT22;48278;52.704;6.536;2023-03-05T03:44:43;2.90;99.90
58339;DHT22;48278;52.704;6.536;2023-03-05T03:47:10;2.80;99.90
58339;DHT22;48278;52.704;6.536;2023-03-05T03:49:39;2.70;99.90
58339;DHT22;48278;52.704;6.536;2023-03-05T03:52:05;2.70;99.90
58339;DHT22;48278;52.704;6.536;2023-03-05T03:54:31;2.70;99.90
58339;DHT22;48278;52.704;6.536;2023-03-05T03:56:57;2.70;99.90
58339;DHT22;48278;52.704;6.536;2023-03-05T03:59:23;2.70;99.90
58339;DHT22;48278;52.704;6.536;2023-03-05T04:01:48;2.70;99.90
58339;DHT22;48278;52.704;6.536;2023-03-05T04:04:15;2.60;99.90
58339;DHT22;48278;52.704;6.536;2023-03-05T04:06:41;2.60;99.90
58339;DHT22;48278;52.704;6.536;2023-03-05T04:09:06;2.60;99.90
58339;DHT22;48278;52.704;6.536;2023-03-05T04:11:33;2.50;99.90
58339;DHT22;48278;52.704;6.536;2023-03-05T04:13:59;2.50;99.90
58339;DHT22;48278;52.704;6.536;2023-03-05T04:16:25;2.50;99.90
58339;DHT22;48278;52.704;6.536;2023-03-05T04:18:51;2.50;99.90
58339;DHT22;48278;52.704;6.536;2023-03-05T04:21:17;2.50;99.90
58339;DHT22;48278;52.704;6.536;2023-03-05T04:23:42;2.50;99.90
58339;DHT22;48278;52.704;6.536;2023-03-05T04:26:08;2.50;99.90
58339;DHT22;48278;52.704;6.536;2023-03-05T04:28:34;2.60;99.90
58339;DHT22;48278;52.704;6.536;2023-03-05T04:31:00;2.60;99.90
58339;DHT22;48278;52.704;6.536;2023-03-05T04:33:26;2.60;99.90
58339;DHT22;48278;52.704;6.536;2023-03-05T04:35:52;2.60;99.90
58339;DHT22;48278;52.704;6.536;2023-03-05T04:38:17;2.60;99.90
58339;DHT22;48278;52.704;6.536;2023-03-05T04:40:44;2.60;99.90
58339;DHT22;48278;52.704;6.536;2023-03-05T04:43:10;2.60;99.90
58339;DHT22;48278;52.704;6.536;2023-03-05T04:45:39;2.60;99.90
58339;DHT22;48278;52.704;6.536;2023-03-05T04:48:05;2.60;99.90
58339;DHT22;48278;52.704;6.536;2023-03-05T04:50:30;2.60;99.90
58339;DHT22;48278;52.704;6.536;2023-03-05T04:52:56;2.60;99.90
58339;DHT22;48278;52.704;6.536;2023-03-05T04:55:22;2.60;99.90
58339;DHT22;48278;52.704;6.536;2023-03-05T04:57:48;2.70;99.90
58339;DHT22;48278;52.704;6.536;2023-03-05T05:00:15;2.60;99.90
58339;DHT22;48278;52.704;6.536;2023-03-05T05:02:41;2.70;99.90
58339;DHT22;48278;52.704;6.536;2023-03-05T05:05:09;2.60;99.90
58339;DHT22;48278;52.704;6.536;2023-03-05T05:07:36;2.60;99.90
58339;DHT22;48278;52.704;6.536;2023-03-05T05:10:03;2.70;99.90
58339;DHT22;48278;52.704;6.536;2023-03-05T05:12:29;2.60;99.90
58339;DHT22;48278;52.704;6.536;2023-03-05T05:14:58;2.60;99.90
58339;DHT22;48278;52.704;6.536;2023-03-05T05:17:23;2.70;99.90
58339;DHT22;48278;52.704;6.536;2023-03-05T05:19:49;2.60;99.90
58339;DHT22;48278;52.704;6.536;2023-03-05T05:22:15;2.70;99.90
58339;DHT22;48278;52.704;6.536;2023-03-05T05:24:41;2.70;99.90
58339;DHT22;48278;52.704;6.536;2023-03-05T05:27:07;2.70;99.90
58339;DHT22;48278;52.704;6.536;2023-03-05T05:29:33;2.70;99.90
58339;DHT22;48278;52.704;6.536;2023-03-05T05:31:58;2.70;99.90
58339;DHT22;48278;52.704;6.536;2023-03-05T05:34:24;2.80;99.90
58339;DHT22;48278;52.704;6.536;2023-03-05T05:36:50;2.80;99.90
58339;DHT22;48278;52.704;6.536;2023-03-05T05:39:18;2.80;99.90
58339;DHT22;48278;52.704;6.536;2023-03-05T05:41:44;2.80;99.90
58339;DHT22;48278;52.704;6.536;2023-03-05T05:44:10;2.70;99.90
58339;DHT22;48278;52.704;6.536;2023-03-05T05:46:36;2.80;99.90
58339;DHT22;48278;52.704;6.536;2023-03-05T05:49:01;2.80;99.90
58339;DHT22;48278;52.704;6.536;2023-03-05T05:51:27;2.80;99.90
58339;DHT22;48278;52.704;6.536;2023-03-05T05:53:53;2.90;99.90
58339;DHT22;48278;52.704;6.536;2023-03-05T05:56:18;2.80;99.90
58339;DHT22;48278;52.704;6.536;2023-03-05T05:58:46;2.90;99.90
58339;DHT22;48278;52.704;6.536;2023-03-05T06:01:22;2.80;99.90
58339;DHT22;48278;52.704;6.536;2023-03-05T06:03:48;2.70;99.90
58339;DHT22;48278;52.704;6.536;2023-03-05T06:06:16;2.60;99.90
58339;DHT22;48278;52.704;6.536;2023-03-05T06:08:42;2.70;99.90
58339;DHT22;48278;52.704;6.536;2023-03-05T06:11:08;2.60;99.90
58339;DHT22;48278;52.704;6.536;2023-03-05T06:13:34;2.50;99.90
58339;DHT22;48278;52.704;6.536;2023-03-05T06:16:03;2.50;99.90
58339;DHT22;48278;52.704;6.536;2023-03-05T06:18:30;2.40;99.90
58339;DHT22;48278;52.704;6.536;2023-03-05T06:21:02;2.30;99.90
58339;DHT22;48278;52.704;6.536;2023-03-05T06:23:28;2.30;99.90
58339;DHT22;48278;52.704;6.536;2023-03-05T06:25:58;2.40;99.90
58339;DHT22;48278;52.704;6.536;2023-03-05T06:28:24;2.30;99.90
58339;DHT22;48278;52.704;6.536;2023-03-05T06:30:50;2.30;99.90
58339;DHT22;48278;52.704;6.536;2023-03-05T06:33:15;2.30;99.90
58339;DHT22;48278;52.704;6.536;2023-03-05T06:35:42;2.30;99.90
58339;DHT22;48278;52.704;6.536;2023-03-05T06:38:08;2.30;99.90
58339;DHT22;48278;52.704;6.536;2023-03-05T06:40:34;2.30;99.90
58339;DHT22;48278;52.704;6.536;2023-03-05T06:43:00;2.50;99.90
58339;DHT22;48278;52.704;6.536;2023-03-05T06:45:25;2.50;99.90
58339;DHT22;48278;52.704;6.536;2023-03-05T06:47:51;2.60;99.90
58339;DHT22;48278;52.704;6.536;2023-03-05T06:50:17;2.60;99.90
58339;DHT22;48278;52.704;6.536;2023-03-05T06:52:43;2.60;99.90
58339;DHT22;48278;52.704;6.536;2023-03-05T06:55:09;2.70;99.90
58339;DHT22;48278;52.704;6.536;2023-03-05T06:57:35;2.70;99.90
58339;DHT22;48278;52.704;6.536;2023-03-05T07:00:03;2.70;99.90
58339;DHT22;48278;52.704;6.536;2023-03-05T07:02:32;2.70;99.90
58339;DHT22;48278;52.704;6.536;2023-03-05T07:04:58;2.70;99.90
58339;DHT22;48278;52.704;6.536;2023-03-05T07:07:23;2.70;99.90
58339;DHT22;48278;52.704;6.536;2023-03-05T07:09:49;2.60;99.90
58339;DHT22;48278;52.704;6.536;2023-03-05T07:12:17;2.60;99.90
58339;DHT22;48278;52.704;6.536;2023-03-05T07:14:43;2.60;99.90
58339;DHT22;48278;52.704;6.536;2023-03-05T07:17:08;2.70;99.90
58339;DHT22;48278;52.704;6.536;2023-03-05T07:19:34;2.70;99.90
58339;DHT22;48278;52.704;6.536;2023-03-05T07:22:00;2.70;99.90
58339;DHT22;48278;52.704;6.536;2023-03-05T07:24:26;2.70;99.90
58339;DHT22;48278;52.704;6.536;2023-03-05T07:26:58;2.70;99.90
58339;DHT22;48278;52.704;6.536;2023-03-05T07:29:25;2.70;99.90
58339;DHT22;48278;52.704;6.536;2023-03-05T07:31:52;2.80;99.90
58339;DHT22;48278;52.704;6.536;2023-03-05T07:34:21;2.80;99.90
58339;DHT22;48278;52.704;6.536;2023-03-05T07:36:53;2.90;99.90
58339;DHT22;48278;52.704;6.536;2023-03-05T07:39:18;3.00;99.90
58339;DHT22;48278;52.704;6.536;2023-03-05T07:41:46;3.00;99.90
58339;DHT22;48278;52.704;6.536;2023-03-05T07:44:11;3.00;99.90
58339;DHT22;48278;52.704;6.536;2023-03-05T07:46:37;3.10;99.90
58339;DHT22;48278;52.704;6.536;2023-03-05T07:49:03;3.10;99.90
58339;DHT22;48278;52.704;6.536;2023-03-05T07:51:29;3.20;99.90
58339;DHT22;48278;52.704;6.536;2023-03-05T07:53:56;3.20;99.90
58339;DHT22;48278;52.704;6.536;2023-03-05T07:56:25;3.20;99.90
58339;DHT22;48278;52.704;6.536;2023-03-05T07:58:51;3.30;99.90
58339;DHT22;48278;52.704;6.536;2023-03-05T08:01:17;3.10;99.90
58339;DHT22;48278;52.704;6.536;2023-03-05T08:03:43;3.20;99.90
58339;DHT22;48278;52.704;6.536;2023-03-05T08:06:10;3.20;99.90
58339;DHT22;48278;52.704;6.536;2023-03-05T08:08:37;3.20;99.90
58339;DHT22;48278;52.704;6.536;2023-03-05T08:11:09;3.20;99.90
58339;DHT22;48278;52.704;6.536;2023-03-05T08:13:35;3.30;99.90
58339;DHT22;48278;52.704;6.536;2023-03-05T08:16:10;3.30;99.90
58339;DHT22;48278;52.704;6.536;2023-03-05T08:18:35;3.40;99.90
58339;DHT22;48278;52.704;6.536;2023-03-05T08:21:03;3.40;99.90
58339;DHT22;48278;52.704;6.536;2023-03-05T08:23:29;3.50;99.90
58339;DHT22;48278;52.704;6.536;2023-03-05T08:25:55;3.60;99.90
58339;DHT22;48278;52.704;6.536;2023-03-05T08:28:21;3.50;99.90
58339;DHT22;48278;52.704;6.536;2023-03-05T08:30:47;3.60;99.90
58339;DHT22;48278;52.704;6.536;2023-03-05T08:33:14;3.60;99.90
58339;DHT22;48278;52.704;6.536;2023-03-05T08:35:42;3.60;99.90
58339;DHT22;48278;52.704;6.536;2023-03-05T08:38:08;3.60;99.90
58339;DHT22;48278;52.704;6.536;2023-03-05T08:40:34;3.70;99.90
58339;DHT22;48278;52.704;6.536;2023-03-05T08:42:59;3.70;99.90
58339;DHT22;48278;52.704;6.536;2023-03-05T08:45:26;3.80;99.90
58339;DHT22;48278;52.704;6.536;2023-03-05T08:47:53;3.90;99.90
58339;DHT22;48278;52.704;6.536;2023-03-05T08:50:20;4.00;99.90
58339;DHT22;48278;52.704;6.536;2023-03-05T08:52:48;4.00;99.90
58339;DHT22;48278;52.704;6.536;2023-03-05T08:55:14;4.10;99.90
58339;DHT22;48278;52.704;6.536;2023-03-05T08:57:39;4.20;99.90
58339;DHT22;48278;52.704;6.536;2023-03-05T09:00:06;4.40;99.90
58339;DHT22;48278;52.704;6.536;2023-03-05T09:02:32;4.50;99.90
58339;DHT22;48278;52.704;6.536;2023-03-05T09:04:57;4.60;99.90
58339;DHT22;48278;52.704;6.536;2023-03-05T09:07:23;4.70;99.90
58339;DHT22;48278;52.704;6.536;2023-03-05T09:09:49;4.80;99.90
58339;DHT22;48278;52.704;6.536;2023-03-05T09:12:14;4.90;99.90
58339;DHT22;48278;52.704;6.536;2023-03-05T09:14:40;4.90;99.90
58339;DHT22;48278;52.704;6.536;2023-03-05T09:17:06;4.90;99.90
58339;DHT22;48278;52.704;6.536;2023-03-05T09:19:32;5.00;99.90
58339;DHT22;48278;52.704;6.536;2023-03-05T09:21:58;5.00;99.90
58339;DHT22;48278;52.704;6.536;2023-03-05T09:24:24;5.10;99.90
58339;DHT22;48278;52.704;6.536;2023-03-05T09:26:49;5.10;99.90
58339;DHT22;48278;52.704;6.536;2023-03-05T09:29:15;5.10;99.90
58339;DHT22;48278;52.704;6.536;2023-03-05T09:31:41;5.10;99.90
58339;DHT22;48278;52.704;6.536;2023-03-05T09:34:10;5.10;99.90
58339;DHT22;48278;52.704;6.536;2023-03-05T09:36:36;5.20;99.90
58339;DHT22;48278;52.704;6.536;2023-03-05T09:39:02;5.30;99.90
58339;DHT22;48278;52.704;6.536;2023-03-05T09:47:19;5.20;99.90
58339;DHT22;48278;52.704;6.536;2023-03-05T09:49:58;5.30;99.90
58339;DHT22;48278;52.704;6.536;2023-03-05T09:55:30;5.40;99.90
58339;DHT22;48278;52.704;6.536;2023-03-05T09:58:05;5.50;99.90
58339;DHT22;48278;52.704;6.536;2023-03-05T10:03:05;5.80;99.90
58339;DHT22;48278;52.704;6.536;2023-03-05T10:11:42;6.20;99.90
58339;DHT22;48278;52.704;6.536;2023-03-05T10:14:28;6.40;99.90
58339;DHT22;48278;52.704;6.536;2023-03-05T10:17:38;6.50;99.90
58339;DHT22;48278;52.704;6.536;2023-03-05T10:23:15;6.70;99.90
58339;DHT22;48278;52.704;6.536;2023-03-05T10:26:13;6.80;99.90
58339;DHT22;48278;52.704;6.536;2023-03-05T10:33:56;6.50;99.90
58339;DHT22;48278;52.704;6.536;2023-03-05T10:39:14;6.60;99.90
58339;DHT22;48278;52.704;6.536;2023-03-05T10:49:51;6.70;99.90
58339;DHT22;48278;52.704;6.536;2023-03-05T10:52:35;6.80;99.90
58339;DHT22;48278;52.704;6.536;2023-03-05T10:55:15;6.90;99.90
58339;DHT22;48278;52.704;6.536;2023-03-05T10:57:42;6.70;99.90
58339;DHT22;48278;52.704;6.536;2023-03-05T11:00:25;6.70;99.90
58339;DHT22;48278;52.704;6.536;2023-03-05T11:03:07;6.80;99.90
58339;DHT22;48278;52.704;6.536;2023-03-05T11:05:48;6.70;99.90
58339;DHT22;48278;52.704;6.536;2023-03-05T11:08:30;6.80;99.90
58339;DHT22;48278;52.704;6.536;2023-03-05T11:11:17;6.80;99.90
58339;DHT22;48278;52.704;6.536;2023-03-05T11:14:01;6.80;99.90
58339;DHT22;48278;52.704;6.536;2023-03-05T11:16:33;6.80;99.90
58339;DHT22;48278;52.704;6.536;2023-03-05T11:21:45;6.90;99.90
58339;DHT22;48278;52.704;6.536;2023-03-05T11:24:16;7.00;99.90
58339;DHT22;48278;52.704;6.536;2023-03-05T11:26:52;7.20;99.90
58339;DHT22;48278;52.704;6.536;2023-03-05T11:29:21;7.40;99.90
58339;DHT22;48278;52.704;6.536;2023-03-05T11:31:48;7.40;99.90
58339;DHT22;48278;52.704;6.536;2023-03-05T11:36:59;7.40;99.90
58339;DHT22;48278;52.704;6.536;2023-03-05T11:39:28;7.70;99.90
58339;DHT22;48278;52.704;6.536;2023-03-05T11:47:32;7.40;99.90
58339;DHT22;48278;52.704;6.536;2023-03-05T12:00:46;7.50;99.90
58339;DHT22;48278;52.704;6.536;2023-03-05T12:03:16;7.70;99.90
58339;DHT22;48278;52.704;6.536;2023-03-05T12:05:50;7.20;99.90
58339;DHT22;48278;52.704;6.536;2023-03-05T12:08:28;7.10;99.90
58339;DHT22;48278;52.704;6.536;2023-03-05T12:10:56;7.10;99.90
58339;DHT22;48278;52.704;6.536;2023-03-05T12:13:34;7.20;99.90
58339;DHT22;48278;52.704;6.536;2023-03-05T12:21:40;7.30;99.90
58339;DHT22;48278;52.704;6.536;2023-03-05T12:32:03;7.60;99.90
58339;DHT22;48278;52.704;6.536;2023-03-05T12:34:44;7.50;99.90
58339;DHT22;48278;52.704;6.536;2023-03-05T12:45:23;7.10;99.90
58339;DHT22;48278;52.704;6.536;2023-03-05T12:53:10;7.40;99.90
58339;DHT22;48278;52.704;6.536;2023-03-05T12:58:49;7.30;99.90
58339;DHT22;48278;52.704;6.536;2023-03-05T13:04:06;7.30;99.90
58339;DHT22;48278;52.704;6.536;2023-03-05T13:06:37;7.30;99.90
58339;DHT22;48278;52.704;6.536;2023-03-05T13:09:11;7.20;99.90
58339;DHT22;48278;52.704;6.536;2023-03-05T13:11:38;7.40;99.90
58339;DHT22;48278;52.704;6.536;2023-03-05T13:16:51;7.90;99.90
58339;DHT22;48278;52.704;6.536;2023-03-05T13:19:17;7.80;99.90
58339;DHT22;48278;52.704;6.536;2023-03-05T13:21:43;8.00;99.90
58339;DHT22;48278;52.704;6.536;2023-03-05T13:24:16;8.10;99.90
58339;DHT22;48278;52.704;6.536;2023-03-05T13:26:42;8.10;99.90
58339;DHT22;48278;52.704;6.536;2023-03-05T13:29:13;8.20;99.90
58339;DHT22;48278;52.704;6.536;2023-03-05T13:31:44;8.10;99.90
58339;DHT22;48278;52.704;6.536;2023-03-05T13:34:19;8.20;99.90
58339;DHT22;48278;52.704;6.536;2023-03-05T13:36:52;8.10;99.90
58339;DHT22;48278;52.704;6.536;2023-03-05T13:39:21;8.00;99.90
58339;DHT22;48278;52.704;6.536;2023-03-05T13:42:05;7.80;99.90
58339;DHT22;48278;52.704;6.536;2023-03-05T13:44:32;7.60;99.90
58339;DHT22;48278;52.704;6.536;2023-03-05T13:47:29;7.60;99.90
58339;DHT22;48278;52.704;6.536;2023-03-05T13:49:57;7.50;99.90
58339;DHT22;48278;52.704;6.536;2023-03-05T13:52:26;7.30;99.90
58339;DHT22;48278;52.704;6.536;2023-03-05T13:54:54;7.10;99.90
58339;DHT22;48278;52.704;6.536;2023-03-05T13:57:40;7.30;99.90
58339;DHT22;48278;52.704;6.536;2023-03-05T14:00:32;7.20;99.90
58339;DHT22;48278;52.704;6.536;2023-03-05T14:03:09;7.40;99.90
58339;DHT22;48278;52.704;6.536;2023-03-05T14:05:35;7.50;99.90
58339;DHT22;48278;52.704;6.536;2023-03-05T14:08:01;7.40;99.90
58339;DHT22;48278;52.704;6.536;2023-03-05T14:10:36;7.50;99.90
58339;DHT22;48278;52.704;6.536;2023-03-05T14:13:12;7.50;99.90
58339;DHT22;48278;52.704;6.536;2023-03-05T14:15:38;7.50;99.90
58339;DHT22;48278;52.704;6.536;2023-03-05T14:20:37;7.50;99.90
58339;DHT22;48278;52.704;6.536;2023-03-05T14:26:36;7.20;99.90
58339;DHT22;48278;52.704;6.536;2023-03-05T14:32:15;7.20;99.90
58339;DHT22;48278;52.704;6.536;2023-03-05T14:34:33;7.20;99.90
58339;DHT22;48278;52.704;6.536;2023-03-05T14:37:28;7.20;99.90
58339;DHT22;48278;52.704;6.536;2023-03-05T14:39:58;7.20;99.90
58339;DHT22;48278;52.704;6.536;2023-03-05T14:42:53;7.20;99.90
58339;DHT22;48278;52.704;6.536;2023-03-05T14:45:23;7.10;99.90
58339;DHT22;48278;52.704;6.536;2023-03-05T14:47:51;7.20;99.90
58339;DHT22;48278;52.704;6.536;2023-03-05T14:50:26;7.10;99.90
58339;DHT22;48278;52.704;6.536;2023-03-05T14:52:56;7.00;99.90
58339;DHT22;48278;52.704;6.536;2023-03-05T14:55:25;6.80;99.90
58339;DHT22;48278;52.704;6.536;2023-03-05T14:57:56;6.50;99.90
58339;DHT22;48278;52.704;6.536;2023-03-05T15:00:25;6.50;99.90
58339;DHT22;48278;52.704;6.536;2023-03-05T15:02:52;6.50;99.90
58339;DHT22;48278;52.704;6.536;2023-03-05T15:05:19;6.60;99.90
58339;DHT22;48278;52.704;6.536;2023-03-05T15:07:45;6.60;99.90
58339;DHT22;48278;52.704;6.536;2023-03-05T15:10:15;6.60;99.90
58339;DHT22;48278;52.704;6.536;2023-03-05T15:12:41;6.60;99.90
58339;DHT22;48278;52.704;6.536;2023-03-05T15:15:07;6.40;99.90
58339;DHT22;48278;52.704;6.536;2023-03-05T15:17:38;6.30;99.90
58339;DHT22;48278;52.704;6.536;2023-03-05T15:20:08;6.10;99.90
58339;DHT22;48278;52.704;6.536;2023-03-05T15:22:35;6.00;99.90
58339;DHT22;48278;52.704;6.536;2023-03-05T15:25:04;6.00;99.90
58339;DHT22;48278;52.704;6.536;2023-03-05T15:27:30;5.90;99.90
58339;DHT22;48278;52.704;6.536;2023-03-05T15:29:55;5.90;99.90
58339;DHT22;48278;52.704;6.536;2023-03-05T15:32:21;5.80;99.90
58339;DHT22;48278;52.704;6.536;2023-03-05T15:34:47;5.90;99.90
58339;DHT22;48278;52.704;6.536;2023-03-05T15:37:13;5.90;99.90
58339;DHT22;48278;52.704;6.536;2023-03-05T15:39:39;5.90;99.90
58339;DHT22;48278;52.704;6.536;2023-03-05T15:42:04;5.90;99.90
58339;DHT22;48278;52.704;6.536;2023-03-05T15:44:30;5.90;99.90
58339;DHT22;48278;52.704;6.536;2023-03-05T15:46:59;6.00;99.90
58339;DHT22;48278;52.704;6.536;2023-03-05T15:49:25;6.00;99.90
58339;DHT22;48278;52.704;6.536;2023-03-05T15:51:51;6.00;99.90
58339;DHT22;48278;52.704;6.536;2023-03-05T15:54:17;6.00;99.90
58339;DHT22;48278;52.704;6.536;2023-03-05T15:56:43;6.10;99.90
58339;DHT22;48278;52.704;6.536;2023-03-05T15:59:09;6.10;99.90
58339;DHT22;48278;52.704;6.536;2023-03-05T16:01:37;6.10;99.90
58339;DHT22;48278;52.704;6.536;2023-03-05T16:04:04;6.10;99.90
58339;DHT22;48278;52.704;6.536;2023-03-05T16:06:30;6.10;99.90
58339;DHT22;48278;52.704;6.536;2023-03-05T16:09:03;6.20;99.90
58339;DHT22;48278;52.704;6.536;2023-03-05T16:11:32;6.10;99.90
58339;DHT22;48278;52.704;6.536;2023-03-05T16:14:02;6.10;99.90
58339;DHT22;48278;52.704;6.536;2023-03-05T16:16:28;6.00;99.90
58339;DHT22;48278;52.704;6.536;2023-03-05T16:18:54;6.00;99.90
58339;DHT22;48278;52.704;6.536;2023-03-05T16:21:20;6.00;99.90
58339;DHT22;48278;52.704;6.536;2023-03-05T16:23:46;6.00;99.90
58339;DHT22;48278;52.704;6.536;2023-03-05T16:26:13;5.90;99.90
58339;DHT22;48278;52.704;6.536;2023-03-05T16:28:39;6.00;99.90
58339;DHT22;48278;52.704;6.536;2023-03-05T16:31:05;5.90;99.90
58339;DHT22;48278;52.704;6.536;2023-03-05T16:33:30;5.90;99.90
58339;DHT22;48278;52.704;6.536;2023-03-05T16:36:18;5.80;99.90
58339;DHT22;48278;52.704;6.536;2023-03-05T16:38:49;5.90;99.90
58339;DHT22;48278;52.704;6.536;2023-03-05T16:41:15;5.90;99.90
58339;DHT22;48278;52.704;6.536;2023-03-05T16:43:42;5.80;99.90
58339;DHT22;48278;52.704;6.536;2023-03-05T16:46:09;5.80;99.90
58339;DHT22;48278;52.704;6.536;2023-03-05T16:48:35;5.70;99.90
58339;DHT22;48278;52.704;6.536;2023-03-05T16:51:02;5.70;99.90
58339;DHT22;48278;52.704;6.536;2023-03-05T16:53:27;5.60;99.90
58339;DHT22;48278;52.704;6.536;2023-03-05T16:55:53;5.60;99.90
58339;DHT22;48278;52.704;6.536;2023-03-05T16:58:19;5.50;99.90
58339;DHT22;48278;52.704;6.536;2023-03-05T17:00:44;5.60;99.90
58339;DHT22;48278;52.704;6.536;2023-03-05T17:03:10;5.60;99.90
58339;DHT22;48278;52.704;6.536;2023-03-05T17:05:36;5.50;99.90
58339;DHT22;48278;52.704;6.536;2023-03-05T17:08:02;5.40;99.90
58339;DHT22;48278;52.704;6.536;2023-03-05T17:10:32;5.40;99.90
58339;DHT22;48278;52.704;6.536;2023-03-05T17:12:58;5.40;99.90
58339;DHT22;48278;52.704;6.536;2023-03-05T17:15:24;5.40;99.90
58339;DHT22;48278;52.704;6.536;2023-03-05T17:17:50;5.30;99.90
58339;DHT22;48278;52.704;6.536;2023-03-05T17:20:15;5.20;99.90
58339;DHT22;48278;52.704;6.536;2023-03-05T17:22:41;5.20;99.90
58339;DHT22;48278;52.704;6.536;2023-03-05T17:25:07;5.10;99.90
58339;DHT22;48278;52.704;6.536;2023-03-05T17:27:33;5.10;99.90
58339;DHT22;48278;52.704;6.536;2023-03-05T17:29:59;5.00;99.90
58339;DHT22;48278;52.704;6.536;2023-03-05T17:32:25;4.90;99.90
58339;DHT22;48278;52.704;6.536;2023-03-05T17:34:55;4.90;99.90
58339;DHT22;48278;52.704;6.536;2023-03-05T17:37:21;4.80;99.90
58339;DHT22;48278;52.704;6.536;2023-03-05T17:39:47;4.80;99.90